-0.8C
пасмурно
пасмурно
Дата и времяТемператураДавление, мм рт.ст.Влажность, %Осадки
МинимумМаксимум
27.02.2024 17:00-1.01C-0.87C76897небольшой снег
27.02.2024 20:00-1.3C-1.13C76795снег
27.02.2024 23:00-3.05C-3.05C76592пасмурно
28.02.2024 02:00-4.22C-4.22C76496небольшой снег
28.02.2024 05:00-4.43C-4.43C76396небольшой снег
28.02.2024 08:00-4.71C-4.71C76295небольшой снег
28.02.2024 11:00-3.93C-3.93C76293небольшой снег
28.02.2024 14:00-2.63C-2.63C76393небольшой снег
28.02.2024 17:00-4.61C-4.61C76494пасмурно
28.02.2024 20:00-7.94C-7.94C76596переменная облачность
28.02.2024 23:00-8.92C-8.92C76596облачно с прояснениями
29.02.2024 02:00-9.58C-9.58C76597облачно с прояснениями
29.02.2024 05:00-10.01C-10.01C76598облачно с прояснениями
29.02.2024 08:00-11.62C-11.62C76598пасмурно
29.02.2024 11:00-8.03C-8.03C76693облачно с прояснениями
29.02.2024 14:00-6.51C-6.51C76689переменная облачность
29.02.2024 17:00-10.47C-10.47C76794небольшая облачность
29.02.2024 20:00-12.46C-12.46C76897небольшая облачность
29.02.2024 23:00-14.57C-14.57C76898переменная облачность
01.03.2024 02:00-14.86C-14.86C76998облачно с прояснениями
01.03.2024 05:00-15.56C-15.56C77097облачно с прояснениями
01.03.2024 08:00-16.34C-16.34C77195переменная облачность
01.03.2024 11:00-11.77C-11.77C77293переменная облачность
01.03.2024 14:00-9.55C-9.55C77390облачно с прояснениями
01.03.2024 17:00-12.58C-12.58C77494переменная облачность
01.03.2024 20:00-15.56C-15.56C77597ясно
01.03.2024 23:00-17.35C-17.35C77698ясно
02.03.2024 02:00-19.58C-19.58C777100небольшая облачность
02.03.2024 05:00-20.68C-20.68C777100небольшая облачность
02.03.2024 08:00-20.54C-20.54C777100облачно с прояснениями
02.03.2024 11:00-11.17C-11.17C77694облачно с прояснениями
02.03.2024 14:00-8.39C-8.39C77593облачно с прояснениями
02.03.2024 17:00-10.24C-10.24C77496пасмурно
02.03.2024 20:00-9.26C-9.26C77194пасмурно
02.03.2024 23:00-8.16C-8.16C77094пасмурно
03.03.2024 02:00-7.59C-7.59C76896пасмурно
03.03.2024 05:00-6.95C-6.95C76696небольшой снег
03.03.2024 08:00-5.1C-5.1C76595пасмурно
03.03.2024 11:00-3.58C-3.58C76493пасмурно
03.03.2024 14:00-3.58C-3.58C76594пасмурно
Дата и время наблюдения: 27.02.2024 14:12:02